sensor_id;sensor_type;location;lat;lon;timestamp;P1;durP1;ratioP1;P2;durP2;ratioP2
31438;SDS011;18062;48.872;9.220;2023-11-21T00:02:12;2.27;;;1.13;;
31438;SDS011;18062;48.872;9.220;2023-11-21T00:04:41;3.70;;;1.33;;
31438;SDS011;18062;48.872;9.220;2023-11-21T00:07:11;3.40;;;1.80;;
31438;SDS011;18062;48.872;9.220;2023-11-21T00:09:40;2.53;;;1.57;;
31438;SDS011;18062;48.872;9.220;2023-11-21T00:12:12;3.17;;;1.60;;
31438;SDS011;18062;48.872;9.220;2023-11-21T00:14:40;2.40;;;1.37;;
31438;SDS011;18062;48.872;9.220;2023-11-21T00:17:07;4.77;;;1.67;;
31438;SDS011;18062;48.872;9.220;2023-11-21T00:19:33;5.67;;;1.87;;
31438;SDS011;18062;48.872;9.220;2023-11-21T00:22:01;2.17;;;1.37;;
31438;SDS011;18062;48.872;9.220;2023-11-21T00:24:28;2.33;;;1.37;;
31438;SDS011;18062;48.872;9.220;2023-11-21T00:26:57;4.03;;;1.73;;
31438;SDS011;18062;48.872;9.220;2023-11-21T00:29:24;3.53;;;1.37;;
31438;SDS011;18062;48.872;9.220;2023-11-21T00:31:54;3.07;;;1.43;;
31438;SDS011;18062;48.872;9.220;2023-11-21T00:34:21;4.87;;;1.70;;
31438;SDS011;18062;48.872;9.220;2023-11-21T00:36:50;2.77;;;1.43;;
31438;SDS011;18062;48.872;9.220;2023-11-21T00:39:16;2.30;;;1.70;;
31438;SDS011;18062;48.872;9.220;2023-11-21T00:41:49;3.60;;;1.53;;
31438;SDS011;18062;48.872;9.220;2023-11-21T00:44:16;4.53;;;1.50;;
31438;SDS011;18062;48.872;9.220;2023-11-21T00:46:45;2.93;;;1.40;;
31438;SDS011;18062;48.872;9.220;2023-11-21T00:49:15;1.70;;;1.40;;
31438;SDS011;18062;48.872;9.220;2023-11-21T00:51:42;2.43;;;1.53;;
31438;SDS011;18062;48.872;9.220;2023-11-21T00:54:08;1.67;;;1.37;;
31438;SDS011;18062;48.872;9.220;2023-11-21T00:56:36;2.60;;;1.53;;
31438;SDS011;18062;48.872;9.220;2023-11-21T00:59:03;5.23;;;1.67;;
31438;SDS011;18062;48.872;9.220;2023-11-21T01:01:33;2.63;;;1.53;;
31438;SDS011;18062;48.872;9.220;2023-11-21T01:04:02;2.23;;;1.40;;
31438;SDS011;18062;48.872;9.220;2023-11-21T01:06:29;2.17;;;1.20;;
31438;SDS011;18062;48.872;9.220;2023-11-21T01:08:58;4.57;;;1.50;;
31438;SDS011;18062;48.872;9.220;2023-11-21T01:11:25;3.53;;;1.37;;
31438;SDS011;18062;48.872;9.220;2023-11-21T01:13:52;3.80;;;1.60;;
31438;SDS011;18062;48.872;9.220;2023-11-21T01:16:18;3.13;;;1.60;;
31438;SDS011;18062;48.872;9.220;2023-11-21T01:18:46;5.97;;;1.67;;
31438;SDS011;18062;48.872;9.220;2023-11-21T01:21:13;5.53;;;1.53;;
31438;SDS011;18062;48.872;9.220;2023-11-21T01:23:42;4.80;;;1.40;;
31438;SDS011;18062;48.872;9.220;2023-11-21T01:26:11;5.40;;;1.50;;
31438;SDS011;18062;48.872;9.220;2023-11-21T01:28:37;6.03;;;1.40;;
31438;SDS011;18062;48.872;9.220;2023-11-21T01:31:03;3.30;;;1.70;;
31438;SDS011;18062;48.872;9.220;2023-11-21T01:33:30;5.30;;;1.50;;
31438;SDS011;18062;48.872;9.220;2023-11-21T01:35:56;1.37;;;1.20;;
31438;SDS011;18062;48.872;9.220;2023-11-21T01:38:23;4.47;;;1.40;;
31438;SDS011;18062;48.872;9.220;2023-11-21T01:40:49;3.53;;;1.50;;
31438;SDS011;18062;48.872;9.220;2023-11-21T01:43:15;4.87;;;1.73;;
31438;SDS011;18062;48.872;9.220;2023-11-21T01:45:42;3.00;;;1.47;;
31438;SDS011;18062;48.872;9.220;2023-11-21T01:48:08;1.47;;;1.33;;
31438;SDS011;18062;48.872;9.220;2023-11-21T01:50:35;2.63;;;1.23;;
31438;SDS011;18062;48.872;9.220;2023-11-21T01:53:01;1.40;;;1.20;;
31438;SDS011;18062;48.872;9.220;2023-11-21T01:55:28;2.30;;;1.20;;
31438;SDS011;18062;48.872;9.220;2023-11-21T01:57:55;1.57;;;1.33;;
31438;SDS011;18062;48.872;9.220;2023-11-21T02:00:24;1.83;;;1.37;;
31438;SDS011;18062;48.872;9.220;2023-11-21T02:02:53;3.10;;;1.20;;
31438;SDS011;18062;48.872;9.220;2023-11-21T02:05:19;3.37;;;1.30;;
31438;SDS011;18062;48.872;9.220;2023-11-21T02:07:46;2.97;;;1.30;;
31438;SDS011;18062;48.872;9.220;2023-11-21T02:10:13;1.93;;;1.37;;
31438;SDS011;18062;48.872;9.220;2023-11-21T02:12:43;3.30;;;1.40;;
31438;SDS011;18062;48.872;9.220;2023-11-21T02:15:13;1.03;;;0.93;;
31438;SDS011;18062;48.872;9.220;2023-11-21T02:17:45;2.40;;;1.20;;
31438;SDS011;18062;48.872;9.220;2023-11-21T02:20:16;1.40;;;1.00;;
31438;SDS011;18062;48.872;9.220;2023-11-21T02:22:43;4.00;;;1.20;;
31438;SDS011;18062;48.872;9.220;2023-11-21T02:25:09;3.60;;;1.27;;
31438;SDS011;18062;48.872;9.220;2023-11-21T02:27:36;2.73;;;1.10;;
31438;SDS011;18062;48.872;9.220;2023-11-21T02:30:02;3.63;;;1.10;;
31438;SDS011;18062;48.872;9.220;2023-11-21T02:32:30;1.23;;;1.07;;
31438;SDS011;18062;48.872;9.220;2023-11-21T02:34:56;6.73;;;1.30;;
31438;SDS011;18062;48.872;9.220;2023-11-21T02:37:26;2.53;;;1.10;;
31438;SDS011;18062;48.872;9.220;2023-11-21T02:39:52;2.70;;;1.13;;
31438;SDS011;18062;48.872;9.220;2023-11-21T02:42:18;1.57;;;0.90;;
31438;SDS011;18062;48.872;9.220;2023-11-21T02:44:44;1.33;;;1.07;;
31438;SDS011;18062;48.872;9.220;2023-11-21T02:47:10;1.40;;;1.00;;
31438;SDS011;18062;48.872;9.220;2023-11-21T02:49:36;4.07;;;0.93;;
31438;SDS011;18062;48.872;9.220;2023-11-21T02:52:02;3.87;;;1.27;;
31438;SDS011;18062;48.872;9.220;2023-11-21T02:54:28;2.00;;;1.00;;
31438;SDS011;18062;48.872;9.220;2023-11-21T02:56:54;2.10;;;1.10;;
31438;SDS011;18062;48.872;9.220;2023-11-21T02:59:20;3.57;;;1.00;;
31438;SDS011;18062;48.872;9.220;2023-11-21T03:01:46;4.73;;;1.30;;
31438;SDS011;18062;48.872;9.220;2023-11-21T03:04:12;1.83;;;0.97;;
31438;SDS011;18062;48.872;9.220;2023-11-21T03:06:43;1.87;;;1.17;;
31438;SDS011;18062;48.872;9.220;2023-11-21T03:09:09;1.50;;;1.10;;
31438;SDS011;18062;48.872;9.220;2023-11-21T03:11:37;1.67;;;1.00;;
31438;SDS011;18062;48.872;9.220;2023-11-21T03:14:03;3.13;;;1.20;;
31438;SDS011;18062;48.872;9.220;2023-11-21T03:16:30;2.43;;;1.10;;
31438;SDS011;18062;48.872;9.220;2023-11-21T03:18:56;2.47;;;1.20;;
31438;SDS011;18062;48.872;9.220;2023-11-21T03:21:22;2.60;;;1.10;;
31438;SDS011;18062;48.872;9.220;2023-11-21T03:23:48;1.30;;;0.97;;
31438;SDS011;18062;48.872;9.220;2023-11-21T03:26:14;1.10;;;1.00;;
31438;SDS011;18062;48.872;9.220;2023-11-21T03:28:40;1.03;;;0.97;;
31438;SDS011;18062;48.872;9.220;2023-11-21T03:31:06;2.30;;;0.90;;
31438;SDS011;18062;48.872;9.220;2023-11-21T03:33:33;1.37;;;1.00;;
31438;SDS011;18062;48.872;9.220;2023-11-21T03:36:00;1.50;;;1.00;;
31438;SDS011;18062;48.872;9.220;2023-11-21T03:38:26;2.97;;;1.10;;
31438;SDS011;18062;48.872;9.220;2023-11-21T03:40:52;1.13;;;0.90;;
31438;SDS011;18062;48.872;9.220;2023-11-21T03:43:18;2.03;;;1.10;;
31438;SDS011;18062;48.872;9.220;2023-11-21T03:45:44;3.33;;;1.03;;
31438;SDS011;18062;48.872;9.220;2023-11-21T03:48:11;1.90;;;0.97;;
31438;SDS011;18062;48.872;9.220;2023-11-21T03:50:38;1.27;;;0.90;;
31438;SDS011;18062;48.872;9.220;2023-11-21T03:53:04;3.13;;;1.10;;
31438;SDS011;18062;48.872;9.220;2023-11-21T03:55:30;1.97;;;0.87;;
31438;SDS011;18062;48.872;9.220;2023-11-21T03:57:57;3.03;;;0.93;;
31438;SDS011;18062;48.872;9.220;2023-11-21T04:00:23;1.40;;;1.00;;
31438;SDS011;18062;48.872;9.220;2023-11-21T04:02:49;1.40;;;0.70;;
31438;SDS011;18062;48.872;9.220;2023-11-21T04:05:16;1.43;;;0.70;;
31438;SDS011;18062;48.872;9.220;2023-11-21T04:07:42;2.07;;;1.00;;
31438;SDS011;18062;48.872;9.220;2023-11-21T04:10:08;1.13;;;0.90;;
31438;SDS011;18062;48.872;9.220;2023-11-21T04:12:37;2.53;;;1.00;;
31438;SDS011;18062;48.872;9.220;2023-11-21T04:15:03;2.20;;;1.17;;
31438;SDS011;18062;48.872;9.220;2023-11-21T04:17:29;0.97;;;0.90;;
31438;SDS011;18062;48.872;9.220;2023-11-21T04:19:55;0.93;;;0.87;;
31438;SDS011;18062;48.872;9.220;2023-11-21T04:22:21;1.97;;;1.00;;
31438;SDS011;18062;48.872;9.220;2023-11-21T04:24:48;0.83;;;0.73;;
31438;SDS011;18062;48.872;9.220;2023-11-21T04:27:14;0.87;;;0.80;;
31438;SDS011;18062;48.872;9.220;2023-11-21T04:29:42;3.63;;;0.70;;
31438;SDS011;18062;48.872;9.220;2023-11-21T04:32:09;1.57;;;1.20;;
31438;SDS011;18062;48.872;9.220;2023-11-21T04:34:35;1.00;;;0.80;;
31438;SDS011;18062;48.872;9.220;2023-11-21T04:37:01;1.00;;;0.90;;
31438;SDS011;18062;48.872;9.220;2023-11-21T04:39:28;1.47;;;0.80;;
31438;SDS011;18062;48.872;9.220;2023-11-21T04:41:54;1.10;;;0.90;;
31438;SDS011;18062;48.872;9.220;2023-11-21T04:44:20;1.27;;;1.17;;
31438;SDS011;18062;48.872;9.220;2023-11-21T04:46:46;1.67;;;0.97;;
31438;SDS011;18062;48.872;9.220;2023-11-21T04:49:12;2.63;;;1.00;;
31438;SDS011;18062;48.872;9.220;2023-11-21T04:51:38;0.90;;;0.90;;
31438;SDS011;18062;48.872;9.220;2023-11-21T04:54:04;1.20;;;0.90;;
31438;SDS011;18062;48.872;9.220;2023-11-21T04:56:30;0.80;;;0.80;;
31438;SDS011;18062;48.872;9.220;2023-11-21T04:58:56;0.80;;;0.80;;
31438;SDS011;18062;48.872;9.220;2023-11-21T05:01:23;2.50;;;0.93;;
31438;SDS011;18062;48.872;9.220;2023-11-21T05:03:49;2.40;;;1.40;;
31438;SDS011;18062;48.872;9.220;2023-11-21T05:06:15;2.43;;;1.10;;
31438;SDS011;18062;48.872;9.220;2023-11-21T05:08:41;2.87;;;1.00;;
31438;SDS011;18062;48.872;9.220;2023-11-21T05:11:07;1.57;;;0.90;;
31438;SDS011;18062;48.872;9.220;2023-11-21T05:13:35;0.77;;;0.77;;
31438;SDS011;18062;48.872;9.220;2023-11-21T05:16:02;1.00;;;0.90;;
31438;SDS011;18062;48.872;9.220;2023-11-21T05:18:32;0.87;;;0.87;;
31438;SDS011;18062;48.872;9.220;2023-11-21T05:20:59;0.73;;;0.73;;
31438;SDS011;18062;48.872;9.220;2023-11-21T05:23:25;2.80;;;1.03;;
31438;SDS011;18062;48.872;9.220;2023-11-21T05:25:51;1.40;;;0.90;;
31438;SDS011;18062;48.872;9.220;2023-11-21T05:28:17;0.63;;;0.63;;
31438;SDS011;18062;48.872;9.220;2023-11-21T05:30:44;1.07;;;0.80;;
31438;SDS011;18062;48.872;9.220;2023-11-21T05:33:10;1.03;;;0.73;;
31438;SDS011;18062;48.872;9.220;2023-11-21T05:35:36;1.23;;;0.97;;
31438;SDS011;18062;48.872;9.220;2023-11-21T05:38:02;0.70;;;0.70;;
31438;SDS011;18062;48.872;9.220;2023-11-21T05:40:28;0.97;;;0.90;;
31438;SDS011;18062;48.872;9.220;2023-11-21T05:42:55;1.00;;;0.73;;
31438;SDS011;18062;48.872;9.220;2023-11-21T05:45:21;0.73;;;0.73;;
31438;SDS011;18062;48.872;9.220;2023-11-21T05:47:47;1.40;;;0.90;;
31438;SDS011;18062;48.872;9.220;2023-11-21T05:50:14;1.03;;;0.90;;
31438;SDS011;18062;48.872;9.220;2023-11-21T05:52:40;1.73;;;1.00;;
31438;SDS011;18062;48.872;9.220;2023-11-21T05:55:07;0.97;;;0.83;;
31438;SDS011;18062;48.872;9.220;2023-11-21T05:57:34;0.80;;;0.80;;
31438;SDS011;18062;48.872;9.220;2023-11-21T06:00:06;1.23;;;0.87;;
31438;SDS011;18062;48.872;9.220;2023-11-21T06:02:37;1.80;;;1.10;;
31438;SDS011;18062;48.872;9.220;2023-11-21T06:05:03;1.60;;;1.17;;
31438;SDS011;18062;48.872;9.220;2023-11-21T06:07:29;0.90;;;0.90;;
31438;SDS011;18062;48.872;9.220;2023-11-21T06:09:55;1.00;;;0.90;;
31438;SDS011;18062;48.872;9.220;2023-11-21T06:12:21;1.20;;;0.93;;
31438;SDS011;18062;48.872;9.220;2023-11-21T06:14:48;1.20;;;0.97;;
31438;SDS011;18062;48.872;9.220;2023-11-21T06:17:14;1.53;;;0.93;;
31438;SDS011;18062;48.872;9.220;2023-11-21T06:19:40;1.10;;;1.00;;
31438;SDS011;18062;48.872;9.220;2023-11-21T06:22:06;1.33;;;0.80;;
31438;SDS011;18062;48.872;9.220;2023-11-21T06:24:33;1.20;;;1.10;;
31438;SDS011;18062;48.872;9.220;2023-11-21T06:26:59;0.80;;;0.80;;
31438;SDS011;18062;48.872;9.220;2023-11-21T06:29:25;0.87;;;0.83;;
31438;SDS011;18062;48.872;9.220;2023-11-21T06:31:51;1.87;;;1.00;;
31438;SDS011;18062;48.872;9.220;2023-11-21T06:34:20;1.50;;;1.20;;
31438;SDS011;18062;48.872;9.220;2023-11-21T06:36:46;2.43;;;1.00;;
31438;SDS011;18062;48.872;9.220;2023-11-21T06:39:12;3.67;;;1.53;;
31438;SDS011;18062;48.872;9.220;2023-11-21T06:41:40;1.17;;;1.07;;
31438;SDS011;18062;48.872;9.220;2023-11-21T06:44:06;2.63;;;0.80;;
31438;SDS011;18062;48.872;9.220;2023-11-21T06:46:33;2.30;;;1.20;;
31438;SDS011;18062;48.872;9.220;2023-11-21T06:48:59;1.03;;;0.93;;
31438;SDS011;18062;48.872;9.220;2023-11-21T06:51:25;1.23;;;0.90;;
31438;SDS011;18062;48.872;9.220;2023-11-21T06:53:51;1.23;;;1.10;;
31438;SDS011;18062;48.872;9.220;2023-11-21T06:56:18;1.17;;;1.00;;
31438;SDS011;18062;48.872;9.220;2023-11-21T06:58:44;0.80;;;0.80;;
31438;SDS011;18062;48.872;9.220;2023-11-21T07:01:11;2.70;;;1.00;;
31438;SDS011;18062;48.872;9.220;2023-11-21T07:03:38;1.73;;;1.10;;
31438;SDS011;18062;48.872;9.220;2023-11-21T07:06:04;1.10;;;1.00;;
31438;SDS011;18062;48.872;9.220;2023-11-21T07:08:30;0.93;;;0.80;;
31438;SDS011;18062;48.872;9.220;2023-11-21T07:10:56;1.10;;;1.00;;
31438;SDS011;18062;48.872;9.220;2023-11-21T07:13:22;0.90;;;0.90;;
31438;SDS011;18062;48.872;9.220;2023-11-21T07:15:49;2.10;;;0.90;;
31438;SDS011;18062;48.872;9.220;2023-11-21T07:18:15;0.80;;;0.80;;
31438;SDS011;18062;48.872;9.220;2023-11-21T07:20:41;1.27;;;0.77;;
31438;SDS011;18062;48.872;9.220;2023-11-21T07:23:07;1.00;;;0.90;;
31438;SDS011;18062;48.872;9.220;2023-11-21T07:25:33;4.53;;;1.00;;
31438;SDS011;18062;48.872;9.220;2023-11-21T07:27:59;1.43;;;1.00;;
31438;SDS011;18062;48.872;9.220;2023-11-21T07:30:25;1.67;;;1.20;;
31438;SDS011;18062;48.872;9.220;2023-11-21T07:32:52;2.57;;;1.07;;
31438;SDS011;18062;48.872;9.220;2023-11-21T07:35:18;4.07;;;1.10;;
31438;SDS011;18062;48.872;9.220;2023-11-21T07:37:44;1.70;;;1.13;;
31438;SDS011;18062;48.872;9.220;2023-11-21T07:40:11;1.03;;;0.93;;
31438;SDS011;18062;48.872;9.220;2023-11-21T07:42:38;3.60;;;1.03;;
31438;SDS011;18062;48.872;9.220;2023-11-21T07:45:05;1.10;;;1.00;;
31438;SDS011;18062;48.872;9.220;2023-11-21T07:47:32;2.73;;;1.20;;
31438;SDS011;18062;48.872;9.220;2023-11-21T07:49:59;3.50;;;1.60;;
31438;SDS011;18062;48.872;9.220;2023-11-21T07:52:25;2.77;;;1.20;;
31438;SDS011;18062;48.872;9.220;2023-11-21T07:54:51;1.90;;;1.03;;
31438;SDS011;18062;48.872;9.220;2023-11-21T07:57:17;1.30;;;1.20;;
31438;SDS011;18062;48.872;9.220;2023-11-21T07:59:43;2.77;;;1.63;;
31438;SDS011;18062;48.872;9.220;2023-11-21T08:02:09;1.90;;;1.53;;
31438;SDS011;18062;48.872;9.220;2023-11-21T08:04:35;1.90;;;1.70;;
31438;SDS011;18062;48.872;9.220;2023-11-21T08:07:01;3.47;;;1.90;;
31438;SDS011;18062;48.872;9.220;2023-11-21T08:09:28;2.10;;;1.90;;
31438;SDS011;18062;48.872;9.220;2023-11-21T08:11:55;3.93;;;2.37;;
31438;SDS011;18062;48.872;9.220;2023-11-21T08:14:21;4.73;;;2.00;;
31438;SDS011;18062;48.872;9.220;2023-11-21T08:16:50;2.23;;;1.50;;
31438;SDS011;18062;48.872;9.220;2023-11-21T08:19:16;1.67;;;1.50;;
31438;SDS011;18062;48.872;9.220;2023-11-21T08:21:43;3.27;;;1.60;;
31438;SDS011;18062;48.872;9.220;2023-11-21T08:24:11;2.10;;;1.60;;
31438;SDS011;18062;48.872;9.220;2023-11-21T08:26:37;2.10;;;1.57;;
31438;SDS011;18062;48.872;9.220;2023-11-21T08:29:03;2.60;;;2.00;;
31438;SDS011;18062;48.872;9.220;2023-11-21T08:31:31;1.90;;;1.67;;
31438;SDS011;18062;48.872;9.220;2023-11-21T08:33:58;3.33;;;1.80;;
31438;SDS011;18062;48.872;9.220;2023-11-21T08:36:25;2.83;;;2.00;;
31438;SDS011;18062;48.872;9.220;2023-11-21T08:38:51;4.67;;;2.30;;
31438;SDS011;18062;48.872;9.220;2023-11-21T08:41:17;2.43;;;1.90;;
31438;SDS011;18062;48.872;9.220;2023-11-21T08:43:47;3.47;;;2.30;;
31438;SDS011;18062;48.872;9.220;2023-11-21T08:46:13;2.40;;;1.93;;
31438;SDS011;18062;48.872;9.220;2023-11-21T08:48:40;3.77;;;2.30;;
31438;SDS011;18062;48.872;9.220;2023-11-21T08:51:09;5.20;;;2.50;;
31438;SDS011;18062;48.872;9.220;2023-11-21T08:53:36;2.43;;;1.67;;
31438;SDS011;18062;48.872;9.220;2023-11-21T08:56:02;2.30;;;2.10;;
31438;SDS011;18062;48.872;9.220;2023-11-21T08:58:29;2.37;;;1.87;;
31438;SDS011;18062;48.872;9.220;2023-11-21T09:00:55;3.87;;;1.50;;
31438;SDS011;18062;48.872;9.220;2023-11-21T09:03:21;1.53;;;1.43;;
31438;SDS011;18062;48.872;9.220;2023-11-21T09:05:47;1.97;;;1.80;;
31438;SDS011;18062;48.872;9.220;2023-11-21T09:08:13;2.20;;;1.63;;
31438;SDS011;18062;48.872;9.220;2023-11-21T09:10:39;2.27;;;1.57;;
31438;SDS011;18062;48.872;9.220;2023-11-21T09:13:08;2.93;;;1.60;;
31438;SDS011;18062;48.872;9.220;2023-11-21T09:15:35;1.83;;;1.60;;
31438;SDS011;18062;48.872;9.220;2023-11-21T09:18:01;1.70;;;1.50;;
31438;SDS011;18062;48.872;9.220;2023-11-21T09:20:27;1.93;;;1.23;;
31438;SDS011;18062;48.872;9.220;2023-11-21T09:22:53;1.70;;;1.17;;
31438;SDS011;18062;48.872;9.220;2023-11-21T09:25:20;2.13;;;1.10;;
31438;SDS011;18062;48.872;9.220;2023-11-21T09:27:47;0.97;;;0.93;;
31438;SDS011;18062;48.872;9.220;2023-11-21T09:30:14;2.30;;;1.20;;
31438;SDS011;18062;48.872;9.220;2023-11-21T09:32:40;1.73;;;1.20;;
31438;SDS011;18062;48.872;9.220;2023-11-21T09:35:10;0.80;;;0.77;;
31438;SDS011;18062;48.872;9.220;2023-11-21T09:37:36;2.83;;;0.73;;
31438;SDS011;18062;48.872;9.220;2023-11-21T09:40:04;1.07;;;0.73;;
31438;SDS011;18062;48.872;9.220;2023-11-21T09:42:32;0.87;;;0.80;;
31438;SDS011;18062;48.872;9.220;2023-11-21T09:47:29;1.20;;;1.10;;
31438;SDS011;18062;48.872;9.220;2023-11-21T09:49:56;1.03;;;1.00;;
31438;SDS011;18062;48.872;9.220;2023-11-21T09:52:24;0.90;;;0.90;;
31438;SDS011;18062;48.872;9.220;2023-11-21T09:54:51;1.03;;;0.77;;
31438;SDS011;18062;48.872;9.220;2023-11-21T09:57:19;0.73;;;0.73;;
31438;SDS011;18062;48.872;9.220;2023-11-21T09:59:46;0.83;;;0.83;;
31438;SDS011;18062;48.872;9.220;2023-11-21T10:02:13;1.63;;;0.80;;
31438;SDS011;18062;48.872;9.220;2023-11-21T10:04:39;0.80;;;0.80;;
31438;SDS011;18062;48.872;9.220;2023-11-21T10:07:06;0.77;;;0.70;;
31438;SDS011;18062;48.872;9.220;2023-11-21T10:09:35;0.70;;;0.70;;
31438;SDS011;18062;48.872;9.220;2023-11-21T10:12:03;0.53;;;0.53;;
31438;SDS011;18062;48.872;9.220;2023-11-21T10:14:31;0.50;;;0.50;;
31438;SDS011;18062;48.872;9.220;2023-11-21T10:16:57;0.50;;;0.50;;
31438;SDS011;18062;48.872;9.220;2023-11-21T10:19:23;0.50;;;0.50;;
31438;SDS011;18062;48.872;9.220;2023-11-21T10:21:49;0.60;;;0.53;;
31438;SDS011;18062;48.872;9.220;2023-11-21T10:24:16;0.67;;;0.63;;
31438;SDS011;18062;48.872;9.220;2023-11-21T10:26:43;1.47;;;0.90;;
31438;SDS011;18062;48.872;9.220;2023-11-21T10:29:10;0.70;;;0.70;;
31438;SDS011;18062;48.872;9.220;2023-11-21T10:31:42;0.80;;;0.80;;
31438;SDS011;18062;48.872;9.220;2023-11-21T10:34:13;1.10;;;1.00;;
31438;SDS011;18062;48.872;9.220;2023-11-21T10:36:40;1.67;;;1.30;;
31438;SDS011;18062;48.872;9.220;2023-11-21T10:39:06;0.80;;;0.80;;
31438;SDS011;18062;48.872;9.220;2023-11-21T10:41:32;0.80;;;0.80;;
31438;SDS011;18062;48.872;9.220;2023-11-21T10:44:00;1.37;;;1.00;;
31438;SDS011;18062;48.872;9.220;2023-11-21T10:46:29;1.30;;;1.20;;
31438;SDS011;18062;48.872;9.220;2023-11-21T10:48:55;1.43;;;1.20;;
31438;SDS011;18062;48.872;9.220;2023-11-21T10:51:21;1.20;;;1.10;;
31438;SDS011;18062;48.872;9.220;2023-11-21T10:53:49;1.80;;;1.70;;
31438;SDS011;18062;48.872;9.220;2023-11-21T10:56:16;1.83;;;1.40;;
31438;SDS011;18062;48.872;9.220;2023-11-21T10:58:45;1.73;;;1.63;;
31438;SDS011;18062;48.872;9.220;2023-11-21T11:01:11;1.40;;;1.10;;
31438;SDS011;18062;48.872;9.220;2023-11-21T11:03:39;1.37;;;1.10;;
31438;SDS011;18062;48.872;9.220;2023-11-21T11:06:05;1.23;;;1.13;;
31438;SDS011;18062;48.872;9.220;2023-11-21T11:08:36;1.10;;;1.00;;
31438;SDS011;18062;48.872;9.220;2023-11-21T11:11:03;1.83;;;0.80;;
31438;SDS011;18062;48.872;9.220;2023-11-21T11:13:30;1.50;;;1.03;;
31438;SDS011;18062;48.872;9.220;2023-11-21T11:15:59;0.80;;;0.80;;
31438;SDS011;18062;48.872;9.220;2023-11-21T11:18:32;1.20;;;1.10;;
31438;SDS011;18062;48.872;9.220;2023-11-21T11:21:06;1.10;;;1.00;;
31438;SDS011;18062;48.872;9.220;2023-11-21T11:28:35;1.07;;;0.97;;
31438;SDS011;18062;48.872;9.220;2023-11-21T11:33:43;0.80;;;0.80;;
31438;SDS011;18062;48.872;9.220;2023-11-21T11:36:14;0.90;;;0.90;;
31438;SDS011;18062;48.872;9.220;2023-11-21T11:38:44;0.73;;;0.73;;
31438;SDS011;18062;48.872;9.220;2023-11-21T11:41:11;1.10;;;1.00;;
31438;SDS011;18062;48.872;9.220;2023-11-21T11:43:37;0.90;;;0.90;;
31438;SDS011;18062;48.872;9.220;2023-11-21T11:46:09;1.10;;;1.00;;
31438;SDS011;18062;48.872;9.220;2023-11-21T11:48:38;1.67;;;1.10;;
31438;SDS011;18062;48.872;9.220;2023-11-21T11:53:43;1.30;;;1.20;;
31438;SDS011;18062;48.872;9.220;2023-11-21T11:56:21;1.10;;;1.00;;
31438;SDS011;18062;48.872;9.220;2023-11-21T11:58:48;1.87;;;1.37;;
31438;SDS011;18062;48.872;9.220;2023-11-21T12:01:16;1.30;;;1.20;;
31438;SDS011;18062;48.872;9.220;2023-11-21T12:03:42;1.20;;;1.10;;
31438;SDS011;18062;48.872;9.220;2023-11-21T12:06:08;1.47;;;1.37;;
31438;SDS011;18062;48.872;9.220;2023-11-21T12:08:36;0.90;;;0.90;;
31438;SDS011;18062;48.872;9.220;2023-11-21T12:11:03;1.10;;;1.00;;
31438;SDS011;18062;48.872;9.220;2023-11-21T12:13:30;1.13;;;1.10;;
31438;SDS011;18062;48.872;9.220;2023-11-21T12:15:56;2.10;;;1.60;;
31438;SDS011;18062;48.872;9.220;2023-11-21T12:18:22;1.20;;;1.10;;
31438;SDS011;18062;48.872;9.220;2023-11-21T12:20:51;1.10;;;1.00;;
31438;SDS011;18062;48.872;9.220;2023-11-21T12:23:17;1.50;;;1.40;;
31438;SDS011;18062;48.872;9.220;2023-11-21T12:25:43;2.30;;;1.23;;
31438;SDS011;18062;48.872;9.220;2023-11-21T12:28:09;1.50;;;1.40;;
31438;SDS011;18062;48.872;9.220;2023-11-21T12:30:37;1.33;;;1.20;;
31438;SDS011;18062;48.872;9.220;2023-11-21T12:33:03;1.30;;;1.20;;
31438;SDS011;18062;48.872;9.220;2023-11-21T12:35:32;1.27;;;1.10;;
31438;SDS011;18062;48.872;9.220;2023-11-21T12:38:01;1.47;;;1.37;;
31438;SDS011;18062;48.872;9.220;2023-11-21T12:40:28;1.40;;;1.30;;
31438;SDS011;18062;48.872;9.220;2023-11-21T12:42:58;1.20;;;1.00;;
31438;SDS011;18062;48.872;9.220;2023-11-21T12:45:27;1.20;;;1.10;;
31438;SDS011;18062;48.872;9.220;2023-11-21T12:50:20;1.33;;;1.20;;
31438;SDS011;18062;48.872;9.220;2023-11-21T12:52:48;1.30;;;1.20;;
31438;SDS011;18062;48.872;9.220;2023-11-21T12:55:18;1.40;;;1.30;;
31438;SDS011;18062;48.872;9.220;2023-11-21T12:57:48;1.20;;;1.10;;
31438;SDS011;18062;48.872;9.220;2023-11-21T13:00:17;1.10;;;1.00;;
31438;SDS011;18062;48.872;9.220;2023-11-21T13:02:56;2.97;;;1.23;;
31438;SDS011;18062;48.872;9.220;2023-11-21T13:05:26;1.10;;;1.07;;
31438;SDS011;18062;48.872;9.220;2023-11-21T13:07:53;1.37;;;1.27;;
31438;SDS011;18062;48.872;9.220;2023-11-21T13:10:21;1.80;;;1.50;;
31438;SDS011;18062;48.872;9.220;2023-11-21T13:12:51;1.57;;;1.33;;
31438;SDS011;18062;48.872;9.220;2023-11-21T13:15:17;1.60;;;1.50;;
31438;SDS011;18062;48.872;9.220;2023-11-21T13:17:43;1.90;;;1.60;;
31438;SDS011;18062;48.872;9.220;2023-11-21T13:20:10;2.10;;;1.50;;
31438;SDS011;18062;48.872;9.220;2023-11-21T13:22:47;1.90;;;1.70;;
31438;SDS011;18062;48.872;9.220;2023-11-21T13:25:15;2.20;;;1.43;;
31438;SDS011;18062;48.872;9.220;2023-11-21T13:27:42;2.00;;;1.37;;
31438;SDS011;18062;48.872;9.220;2023-11-21T13:30:09;1.40;;;1.30;;
31438;SDS011;18062;48.872;9.220;2023-11-21T13:32:36;1.97;;;1.57;;
31438;SDS011;18062;48.872;9.220;2023-11-21T13:35:02;2.43;;;1.80;;
31438;SDS011;18062;48.872;9.220;2023-11-21T13:37:33;2.60;;;1.30;;
31438;SDS011;18062;48.872;9.220;2023-11-21T13:39:59;1.70;;;1.60;;
31438;SDS011;18062;48.872;9.220;2023-11-21T13:42:28;1.80;;;1.60;;
31438;SDS011;18062;48.872;9.220;2023-11-21T13:44:58;1.90;;;1.60;;
31438;SDS011;18062;48.872;9.220;2023-11-21T13:47:24;1.60;;;1.50;;
31438;SDS011;18062;48.872;9.220;2023-11-21T13:49:54;3.07;;;1.30;;
31438;SDS011;18062;48.872;9.220;2023-11-21T13:52:20;2.27;;;1.20;;
31438;SDS011;18062;48.872;9.220;2023-11-21T13:54:51;2.10;;;1.13;;
31438;SDS011;18062;48.872;9.220;2023-11-21T13:57:18;1.30;;;1.10;;
31438;SDS011;18062;48.872;9.220;2023-11-21T13:59:45;1.00;;;1.00;;
31438;SDS011;18062;48.872;9.220;2023-11-21T14:02:11;1.10;;;1.00;;
31438;SDS011;18062;48.872;9.220;2023-11-21T14:04:44;1.10;;;1.00;;
31438;SDS011;18062;48.872;9.220;2023-11-21T14:07:21;0.90;;;0.90;;
31438;SDS011;18062;48.872;9.220;2023-11-21T14:10:02;1.07;;;0.90;;
31438;SDS011;18062;48.872;9.220;2023-11-21T14:12:30;0.90;;;0.80;;
31438;SDS011;18062;48.872;9.220;2023-11-21T14:14:59;1.20;;;0.90;;
31438;SDS011;18062;48.872;9.220;2023-11-21T14:17:26;1.20;;;0.93;;
31438;SDS011;18062;48.872;9.220;2023-11-21T14:19:52;1.13;;;0.93;;
31438;SDS011;18062;48.872;9.220;2023-11-21T14:22:20;1.30;;;1.20;;
31438;SDS011;18062;48.872;9.220;2023-11-21T14:24:47;1.73;;;1.10;;
31438;SDS011;18062;48.872;9.220;2023-11-21T14:27:15;1.80;;;1.03;;
31438;SDS011;18062;48.872;9.220;2023-11-21T14:29:42;1.40;;;1.10;;
31438;SDS011;18062;48.872;9.220;2023-11-21T14:32:09;1.17;;;1.07;;
31438;SDS011;18062;48.872;9.220;2023-11-21T14:34:36;1.10;;;1.00;;
31438;SDS011;18062;48.872;9.220;2023-11-21T14:37:03;1.20;;;1.10;;
31438;SDS011;18062;48.872;9.220;2023-11-21T14:39:29;1.23;;;1.00;;
31438;SDS011;18062;48.872;9.220;2023-11-21T14:42:00;1.20;;;1.00;;
31438;SDS011;18062;48.872;9.220;2023-11-21T14:44:27;1.10;;;1.00;;
31438;SDS011;18062;48.872;9.220;2023-11-21T14:46:57;1.40;;;1.23;;
31438;SDS011;18062;48.872;9.220;2023-11-21T14:49:24;1.37;;;1.03;;
31438;SDS011;18062;48.872;9.220;2023-11-21T14:51:53;1.80;;;1.23;;
31438;SDS011;18062;48.872;9.220;2023-11-21T14:54:19;1.40;;;1.20;;
31438;SDS011;18062;48.872;9.220;2023-11-21T14:57:00;1.50;;;1.20;;
31438;SDS011;18062;48.872;9.220;2023-11-21T14:59:26;1.93;;;1.40;;
31438;SDS011;18062;48.872;9.220;2023-11-21T15:01:52;1.50;;;1.30;;
31438;SDS011;18062;48.872;9.220;2023-11-21T15:04:20;4.07;;;1.40;;